Time;durP1;ratioP1;P1;durP2;ratioP2;P2;SDS_P1;SDS_P2;PMS_P1;PMS_P2;Temp;Humidity;BMP_temperature;BMP_pressure;BME280_temperature;BME280_humidity;BME280_pressure;Samples;Min_cycle;Max_cycle;Signal;HPM_P1;HPM_P2
2023/05/28 00:03:06;;;;;;;20.92;7.10;;;;;;;;;;10359595;28;20233;-77
2023/05/28 00:08:07;;;;;;;93.50;25.20;;;;;;;;;;10348817;28;21808;-77
2023/05/28 00:13:08;;;;;;;158.38;39.67;;;;;;;;;;10359033;28;20219;-77
2023/05/28 00:18:11;;;;;;;99.72;32.00;;;;;;;;;;10325548;28;20223;-76
2023/05/28 00:23:13;;;;;;;70.80;26.98;;;;;;;;;;10282737;28;20219;-72
2023/05/28 00:28:15;;;;;;;18.65;8.65;;;;;;;;;;10254016;28;20915;-71
2023/05/28 00:33:16;;;;;;;18.85;8.38;;;;;;;;;;10223517;28;20227;-72
2023/05/28 00:38:17;;;;;;;11.73;5.90;;;;;;;;;;10290375;28;20281;-76
2023/05/28 00:43:19;;;;;;;4.43;3.72;;;;;;;;;;10341133;28;20346;-72
2023/05/28 00:48:21;;;;;;;4.60;3.40;;;;;;;;;;10271761;28;20350;-77
2023/05/28 00:53:23;;;;;;;7.78;3.40;;;;;;;;;;10253081;28;20231;-74
2023/05/28 00:58:26;;;;;;;2.75;2.22;;;;;;;;;;10279122;28;20726;-76
2023/05/28 01:03:27;;;;;;;6.15;2.67;;;;;;;;;;10246402;28;20216;-76
2023/05/28 01:08:28;;;;;;;2.45;1.75;;;;;;;;;;10260271;28;20220;-73
2023/05/28 01:13:30;;;;;;;1.70;1.60;;;;;;;;;;10244439;28;20695;-74
2023/05/28 01:18:31;;;;;;;2.65;2.45;;;;;;;;;;10260914;28;20267;-75
2023/05/28 01:23:45;;;;;;;2.15;2.03;;;;;;;;;;10243993;28;20220;-74
2023/05/28 01:28:48;;;;;;;5.05;2.45;;;;;;;;;;10259018;28;21715;-76
2023/05/28 01:33:49;;;;;;;2.58;2.42;;;;;;;;;;10314579;28;20764;-72
2023/05/28 01:38:53;;;;;;;3.03;2.08;;;;;;;;;;10270713;28;20286;-75
2023/05/28 01:43:54;;;;;;;2.10;1.75;;;;;;;;;;10279024;28;20254;-74
2023/05/28 01:48:56;;;;;;;2.45;1.92;;;;;;;;;;10238009;28;20232;-73
2023/05/28 01:53:57;;;;;;;3.95;2.13;;;;;;;;;;10321031;28;21094;-72
2023/05/28 01:58:58;;;;;;;1.63;1.52;;;;;;;;;;10253862;28;20278;-71
2023/05/28 02:04:00;;;;;;;3.33;1.75;;;;;;;;;;10245616;28;20692;-75
2023/05/28 02:09:01;;;;;;;2.05;1.50;;;;;;;;;;10263271;28;20342;-72
2023/05/28 02:14:03;;;;;;;2.15;1.50;;;;;;;;;;10321172;28;20335;-73
2023/05/28 02:19:04;;;;;;;1.95;1.33;;;;;;;;;;10316913;28;23214;-73
2023/05/28 02:24:06;;;;;;;1.65;1.55;;;;;;;;;;10259086;28;20215;-76
2023/05/28 02:29:07;;;;;;;0.98;0.98;;;;;;;;;;10233172;28;20266;-73
2023/05/28 02:34:10;;;;;;;1.60;1.15;;;;;;;;;;10237817;28;20231;-74
2023/05/28 02:39:12;;;;;;;1.85;1.45;;;;;;;;;;10254515;28;20691;-77
2023/05/28 02:44:13;;;;;;;1.23;1.23;;;;;;;;;;10263907;28;20884;-72
2023/05/28 02:49:14;;;;;;;1.50;1.40;;;;;;;;;;10230969;28;20219;-75
2023/05/28 02:54:15;;;;;;;1.08;1.08;;;;;;;;;;10226005;28;20230;-73
2023/05/28 02:59:16;;;;;;;1.88;1.05;;;;;;;;;;10241232;28;20316;-75
2023/05/28 03:04:18;;;;;;;1.42;1.10;;;;;;;;;;10293637;28;20314;-77
2023/05/28 03:09:20;;;;;;;1.60;1.27;;;;;;;;;;10254364;28;20529;-72
2023/05/28 03:14:21;;;;;;;1.05;1.02;;;;;;;;;;10217340;28;20232;-74
2023/05/28 03:19:22;;;;;;;1.55;1.52;;;;;;;;;;10233208;28;20216;-74
2023/05/28 03:24:24;;;;;;;2.22;1.55;;;;;;;;;;10226942;28;20327;-75
2023/05/28 03:29:28;;;;;;;1.75;1.23;;;;;;;;;;10228223;28;20382;-77
2023/05/28 03:34:37;;;;;;;1.35;1.35;;;;;;;;;;10242682;28;20231;-74
2023/05/28 03:39:38;;;;;;;1.27;0.95;;;;;;;;;;10208915;28;21243;-71
2023/05/28 03:44:39;;;;;;;1.88;1.17;;;;;;;;;;10248145;28;20216;-73
2023/05/28 03:49:41;;;;;;;1.08;1.08;;;;;;;;;;10224529;28;20212;-74
2023/05/28 03:54:43;;;;;;;1.27;1.17;;;;;;;;;;10240581;28;22282;-75
2023/05/28 03:59:44;;;;;;;1.40;1.15;;;;;;;;;;10249765;28;21343;-76
2023/05/28 04:04:47;;;;;;;2.53;1.17;;;;;;;;;;10208983;28;20311;-73
2023/05/28 04:09:48;;;;;;;2.13;0.90;;;;;;;;;;10271567;28;20226;-75
2023/05/28 04:14:50;;;;;;;1.95;1.45;;;;;;;;;;10229978;28;20246;-75
2023/05/28 04:19:53;;;;;;;1.10;1.10;;;;;;;;;;10256723;28;20692;-77
2023/05/28 04:24:55;;;;;;;1.60;1.20;;;;;;;;;;10258343;28;21271;-72
2023/05/28 04:29:57;;;;;;;1.92;1.23;;;;;;;;;;10251479;28;20224;-76
2023/05/28 04:35:03;;;;;;;1.58;1.30;;;;;;;;;;10234759;28;20238;-71
2023/05/28 04:40:05;;;;;;;0.82;0.82;;;;;;;;;;10219716;28;20294;-77
2023/05/28 04:45:07;;;;;;;1.10;1.10;;;;;;;;;;10225097;28;20242;-75
2023/05/28 04:50:09;;;;;;;1.23;1.13;;;;;;;;;;10264640;28;20258;-76
2023/05/28 04:55:12;;;;;;;1.77;1.65;;;;;;;;;;10250643;28;20255;-74
2023/05/28 05:00:13;;;;;;;1.30;1.30;;;;;;;;;;10236427;28;21356;-78
2023/05/28 05:05:15;;;;;;;1.90;1.80;;;;;;;;;;10234125;28;21340;-78
2023/05/28 05:10:16;;;;;;;1.48;1.38;;;;;;;;;;10255375;28;20223;-73
2023/05/28 05:15:17;;;;;;;1.77;1.60;;;;;;;;;;10258117;28;20227;-74
2023/05/28 05:20:18;;;;;;;2.17;1.73;;;;;;;;;;10237343;28;20230;-76
2023/05/28 05:25:19;;;;;;;1.60;1.50;;;;;;;;;;10257797;28;20644;-73
2023/05/28 05:30:22;;;;;;;1.83;1.63;;;;;;;;;;10239752;28;22782;-71
2023/05/28 05:35:23;;;;;;;2.67;1.80;;;;;;;;;;10237042;28;20609;-75
2023/05/28 05:40:44;;;;;;;1.63;1.52;;;;;;;;;;10252738;28;20989;-74
2023/05/28 05:46:04;;;;;;;2.05;1.95;;;;;;;;;;10236351;28;20230;-73
2023/05/28 05:51:06;;;;;;;2.75;2.50;;;;;;;;;;10225371;28;20219;-76
2023/05/28 05:56:08;;;;;;;2.90;2.10;;;;;;;;;;10233655;28;21814;-74
2023/05/28 06:01:10;;;;;;;10.15;2.38;;;;;;;;;;10234934;28;20584;-73
2023/05/28 06:06:11;;;;;;;4.13;2.00;;;;;;;;;;10209054;28;21178;-77
2023/05/28 06:11:26;;;;;;;4.57;2.92;;;;;;;;;;10243654;28;20219;-74
2023/05/28 06:16:28;;;;;;;2.60;2.50;;;;;;;;;;10245224;28;21047;-73
2023/05/28 06:21:29;;;;;;;2.45;2.28;;;;;;;;;;10235651;28;20222;-74
2023/05/28 06:26:31;;;;;;;2.78;2.60;;;;;;;;;;10326723;28;20223;-76
2023/05/28 06:31:33;;;;;;;2.67;2.47;;;;;;;;;;10331099;28;20211;-77
2023/05/28 06:36:35;;;;;;;2.63;2.53;;;;;;;;;;10354706;28;20281;-73
2023/05/28 06:41:37;;;;;;;4.72;2.00;;;;;;;;;;10361116;28;20219;-72
2023/05/28 06:46:39;;;;;;;3.90;2.58;;;;;;;;;;10356197;28;20242;-76
2023/05/28 06:51:42;;;;;;;5.30;2.22;;;;;;;;;;10303315;28;20219;-76
2023/05/28 06:56:44;;;;;;;2.22;2.10;;;;;;;;;;10302510;28;20360;-73
2023/05/28 07:02:08;;;;;;;2.38;2.25;;;;;;;;;;10325581;28;20222;-75
2023/05/28 07:07:45;;;;;;;2.60;2.50;;;;;;;;;;10245562;28;20215;-76
2023/05/28 07:12:46;;;;;;;5.43;2.45;;;;;;;;;;10268028;28;20239;-75
2023/05/28 07:17:47;;;;;;;2.85;2.42;;;;;;;;;;10287130;28;20215;-72
2023/05/28 07:22:49;;;;;;;4.22;2.78;;;;;;;;;;10342630;28;20211;-74
2023/05/28 07:27:50;;;;;;;2.00;1.90;;;;;;;;;;10349797;28;20211;-80
2023/05/28 07:32:58;;;;;;;3.00;2.60;;;;;;;;;;10363339;28;20212;-77
2023/05/28 07:38:02;;;;;;;4.25;2.13;;;;;;;;;;10331701;28;20211;-75
2023/05/28 07:43:03;;;;;;;2.10;1.95;;;;;;;;;;10286530;28;20216;-75
2023/05/28 07:48:05;;;;;;;7.97;2.22;;;;;;;;;;10312600;28;21162;-77
2023/05/28 07:53:24;;;;;;;1.70;1.60;;;;;;;;;;10225193;28;21025;-73
2023/05/28 07:58:26;;;;;;;3.85;1.73;;;;;;;;;;10347557;28;20275;-72
2023/05/28 08:03:27;;;;;;;1.60;1.50;;;;;;;;;;10364204;28;20223;-75
2023/05/28 08:08:29;;;;;;;2.15;1.73;;;;;;;;;;10325733;28;20228;-76
2023/05/28 08:13:30;;;;;;;2.47;1.65;;;;;;;;;;10328451;28;20231;-79
2023/05/28 08:18:35;;;;;;;2.22;1.52;;;;;;;;;;10346175;28;20219;-78
2023/05/28 08:23:37;;;;;;;3.38;1.63;;;;;;;;;;10331093;28;23432;-73
2023/05/28 08:28:42;;;;;;;1.85;1.63;;;;;;;;;;10347689;28;20937;-77
2023/05/28 08:33:43;;;;;;;3.05;1.70;;;;;;;;;;10343939;28;20285;-76
2023/05/28 08:38:44;;;;;;;2.05;1.30;;;;;;;;;;10333245;28;20217;-74
2023/05/28 08:43:48;;;;;;;2.90;1.25;;;;;;;;;;10333738;28;20262;-78
2023/05/28 08:48:49;;;;;;;5.68;1.08;;;;;;;;;;10361320;28;20284;-78
2023/05/28 08:53:52;;;;;;;0.95;0.80;;;;;;;;;;10381013;28;20319;-75
2023/05/28 08:58:58;;;;;;;1.13;1.02;;;;;;;;;;10365116;28;20254;-76
2023/05/28 09:04:00;;;;;;;1.35;1.25;;;;;;;;;;10362101;28;20783;-78
2023/05/28 09:09:11;;;;;;;1.63;1.30;;;;;;;;;;10373834;28;20289;-77
2023/05/28 09:14:20;;;;;;;2.40;1.10;;;;;;;;;;10351201;28;20966;-76
2023/05/28 09:19:26;;;;;;;0.90;0.90;;;;;;;;;;10381138;28;20219;-74
2023/05/28 09:24:30;;;;;;;1.85;1.05;;;;;;;;;;10372451;28;20219;-73
2023/05/28 09:30:01;;;;;;;2.25;0.90;;;;;;;;;;10364009;28;20223;-73
2023/05/28 09:35:06;;;;;;;0.82;0.80;;;;;;;;;;10369986;28;20319;-76
2023/05/28 09:40:09;;;;;;;0.82;0.82;;;;;;;;;;10329188;28;20225;-74
2023/05/28 09:45:11;;;;;;;3.17;0.85;;;;;;;;;;10349493;28;20222;-78
2023/05/28 09:50:12;;;;;;;2.28;1.00;;;;;;;;;;10358988;28;20215;-76
2023/05/28 09:55:15;;;;;;;1.20;1.10;;;;;;;;;;10361727;28;20219;-77
2023/05/28 10:00:22;;;;;;;3.47;1.35;;;;;;;;;;10379001;28;20212;-77
2023/05/28 10:05:23;;;;;;;1.88;1.35;;;;;;;;;;10352633;28;20876;-76
2023/05/28 10:10:27;;;;;;;0.88;0.88;;;;;;;;;;10360164;28;20592;-74
2023/05/28 10:15:29;;;;;;;1.00;1.00;;;;;;;;;;10353690;28;20224;-76
2023/05/28 10:20:30;;;;;;;1.02;1.02;;;;;;;;;;10361886;28;20215;-75
2023/05/28 10:25:32;;;;;;;1.13;1.08;;;;;;;;;;10319945;28;20207;-77
2023/05/28 10:30:37;;;;;;;1.27;1.05;;;;;;;;;;10352562;28;20235;-77
2023/05/28 10:35:50;;;;;;;1.80;1.17;;;;;;;;;;10368040;28;20249;-77
2023/05/28 10:40:51;;;;;;;1.95;1.23;;;;;;;;;;10365632;28;20652;-78
2023/05/28 10:46:04;;;;;;;1.50;1.13;;;;;;;;;;10336462;28;20293;-77
2023/05/28 10:51:05;;;;;;;3.95;1.30;;;;;;;;;;10363074;28;20248;-78
2023/05/28 10:56:08;;;;;;;2.63;0.90;;;;;;;;;;10349905;28;20224;-79
2023/05/28 11:01:12;;;;;;;1.50;1.10;;;;;;;;;;10370317;28;20591;-79
2023/05/28 11:06:14;;;;;;;3.47;0.90;;;;;;;;;;10369239;28;20223;-78
2023/05/28 11:11:16;;;;;;;1.00;1.00;;;;;;;;;;10378653;28;20203;-77
2023/05/28 11:16:18;;;;;;;0.98;0.98;;;;;;;;;;10372712;28;20644;-79
2023/05/28 11:21:19;;;;;;;0.77;0.77;;;;;;;;;;10360923;28;20219;-76
2023/05/28 11:26:23;;;;;;;1.50;0.75;;;;;;;;;;10347274;28;20223;-79
2023/05/28 11:31:24;;;;;;;0.98;0.98;;;;;;;;;;10366552;28;20216;-79
2023/05/28 11:36:25;;;;;;;0.80;0.80;;;;;;;;;;10330088;28;20650;-79
2023/05/28 11:41:27;;;;;;;0.75;0.75;;;;;;;;;;10369045;28;20216;-81
2023/05/28 11:46:28;;;;;;;0.93;0.90;;;;;;;;;;10342327;28;20551;-79
2023/05/28 11:51:30;;;;;;;2.05;0.93;;;;;;;;;;10344124;28;20207;-78
2023/05/28 11:56:35;;;;;;;0.80;0.80;;;;;;;;;;10354143;28;20322;-78
2023/05/28 12:01:36;;;;;;;1.02;1.02;;;;;;;;;;10344720;28;20712;-77
2023/05/28 12:06:51;;;;;;;1.00;1.00;;;;;;;;;;10344455;28;20306;-78
2023/05/28 12:12:23;;;;;;;2.70;1.05;;;;;;;;;;10355313;28;20223;-74
2023/05/28 12:17:24;;;;;;;0.80;0.80;;;;;;;;;;10340500;28;20219;-76
2023/05/28 12:22:25;;;;;;;1.25;1.20;;;;;;;;;;10371684;28;20694;-77
2023/05/28 12:27:26;;;;;;;1.15;1.10;;;;;;;;;;10379751;28;20223;-76
2023/05/28 12:32:27;;;;;;;0.70;0.70;;;;;;;;;;10377830;28;20313;-79
2023/05/28 12:37:28;;;;;;;0.95;0.95;;;;;;;;;;10376472;28;20229;-76
2023/05/28 12:42:29;;;;;;;0.77;0.77;;;;;;;;;;10345038;28;20226;-77
2023/05/28 12:47:30;;;;;;;1.75;1.20;;;;;;;;;;10369766;28;20345;-75
2023/05/28 12:52:34;;;;;;;0.95;0.88;;;;;;;;;;10371040;28;20335;-79
2023/05/28 12:57:35;;;;;;;2.30;0.93;;;;;;;;;;10383879;28;20234;-78
2023/05/28 13:02:36;;;;;;;0.70;0.70;;;;;;;;;;10345200;28;20219;-77
2023/05/28 13:07:37;;;;;;;3.17;0.90;;;;;;;;;;10362697;28;20345;-79
2023/05/28 13:12:38;;;;;;;1.25;0.90;;;;;;;;;;10361233;28;20223;-80
2023/05/28 13:17:39;;;;;;;1.23;0.90;;;;;;;;;;10377038;28;20610;-79
2023/05/28 13:22:41;;;;;;;0.80;0.73;;;;;;;;;;10369024;28;20699;-78
2023/05/28 13:27:42;;;;;;;1.30;0.80;;;;;;;;;;10372608;28;20226;-80
2023/05/28 13:32:43;;;;;;;0.82;0.82;;;;;;;;;;10373541;28;20233;-78
2023/05/28 13:37:44;;;;;;;1.58;0.80;;;;;;;;;;10362979;28;20230;-79
2023/05/28 13:42:48;;;;;;;1.10;1.10;;;;;;;;;;10369417;28;20208;-80
2023/05/28 13:47:49;;;;;;;1.13;1.02;;;;;;;;;;10353662;28;20215;-79
2023/05/28 13:52:50;;;;;;;4.03;1.00;;;;;;;;;;10359473;28;20238;-78
2023/05/28 13:57:52;;;;;;;1.40;0.90;;;;;;;;;;10379293;28;20812;-77
2023/05/28 14:02:53;;;;;;;1.10;1.10;;;;;;;;;;10375832;28;20228;-79
2023/05/28 14:07:54;;;;;;;1.58;0.85;;;;;;;;;;10377436;28;20597;-78
2023/05/28 14:12:55;;;;;;;4.03;1.00;;;;;;;;;;10374896;28;20223;-79
2023/05/28 14:17:56;;;;;;;1.50;0.90;;;;;;;;;;10372595;28;20670;-79
2023/05/28 14:22:57;;;;;;;1.02;0.80;;;;;;;;;;10357537;28;20315;-78
2023/05/28 14:27:58;;;;;;;3.75;1.15;;;;;;;;;;10357734;28;20207;-78
2023/05/28 14:32:59;;;;;;;1.20;0.88;;;;;;;;;;10358416;28;20215;-78
2023/05/28 14:38:00;;;;;;;1.17;0.98;;;;;;;;;;10374295;28;20219;-78
2023/05/28 14:43:02;;;;;;;4.10;0.80;;;;;;;;;;10373641;28;20226;-80
2023/05/28 14:48:03;;;;;;;0.77;0.77;;;;;;;;;;10375478;28;20226;-78
2023/05/28 14:53:05;;;;;;;4.15;1.05;;;;;;;;;;10373653;28;20587;-79
2023/05/28 14:58:06;;;;;;;0.95;0.95;;;;;;;;;;10348013;28;20220;-78
2023/05/28 15:03:08;;;;;;;1.02;0.82;;;;;;;;;;10357957;28;20223;-82
2023/05/28 15:08:10;;;;;;;1.05;0.98;;;;;;;;;;10374481;28;20239;-81
2023/05/28 15:13:12;;;;;;;1.20;1.10;;;;;;;;;;10338424;28;21105;-83
2023/05/28 15:18:14;;;;;;;1.58;0.90;;;;;;;;;;10367225;28;20823;-82
2023/05/28 15:23:15;;;;;;;1.02;0.82;;;;;;;;;;10373201;28;20215;-80
2023/05/28 15:28:18;;;;;;;0.82;0.82;;;;;;;;;;10366008;28;20310;-82
2023/05/28 15:33:19;;;;;;;1.23;0.88;;;;;;;;;;10370650;28;20230;-81
2023/05/28 15:38:20;;;;;;;5.25;1.17;;;;;;;;;;10373267;28;20227;-82
2023/05/28 15:43:24;;;;;;;0.90;0.90;;;;;;;;;;10332762;28;20219;-81
2023/05/28 15:48:27;;;;;;;1.85;1.00;;;;;;;;;;10317568;28;20215;-79
2023/05/28 15:53:30;;;;;;;1.80;0.70;;;;;;;;;;10350777;28;20258;-81
2023/05/28 15:58:31;;;;;;;1.08;0.88;;;;;;;;;;10345608;28;20700;-80
2023/05/28 16:03:33;;;;;;;1.75;0.80;;;;;;;;;;10364734;28;20223;-80
2023/05/28 16:08:34;;;;;;;0.85;0.70;;;;;;;;;;10353468;28;20303;-80
2023/05/28 16:13:37;;;;;;;1.25;1.15;;;;;;;;;;10322376;28;20222;-80
2023/05/28 16:18:38;;;;;;;1.63;1.52;;;;;;;;;;10307363;28;20250;-79
2023/05/28 16:23:39;;;;;;;1.75;0.85;;;;;;;;;;10315837;28;20216;-79
2023/05/28 16:28:42;;;;;;;0.98;0.82;;;;;;;;;;10324927;28;20676;-82
2023/05/28 16:33:43;;;;;;;1.20;0.75;;;;;;;;;;10363390;28;20239;-79
2023/05/28 16:38:44;;;;;;;1.50;1.00;;;;;;;;;;10343565;28;20216;-80
2023/05/28 16:43:46;;;;;;;1.05;0.90;;;;;;;;;;10365922;28;20679;-83
2023/05/28 16:48:47;;;;;;;1.35;1.10;;;;;;;;;;10366893;28;20211;-80
2023/05/28 16:53:49;;;;;;;0.93;0.88;;;;;;;;;;10352622;28;20227;-80
2023/05/28 16:58:50;;;;;;;1.65;1.13;;;;;;;;;;10346051;28;20226;-79
2023/05/28 17:03:51;;;;;;;1.30;1.30;;;;;;;;;;10346150;28;20211;-79
2023/05/28 17:08:52;;;;;;;1.50;1.40;;;;;;;;;;10345902;28;20553;-80
2023/05/28 17:13:53;;;;;;;1.23;1.13;;;;;;;;;;10362935;28;20302;-78
2023/05/28 17:18:54;;;;;;;1.25;1.15;;;;;;;;;;10356424;28;20230;-79
2023/05/28 17:23:55;;;;;;;5.45;5.05;;;;;;;;;;10344259;28;20257;-79
2023/05/28 17:28:56;;;;;;;1.85;1.75;;;;;;;;;;10341260;28;20250;-80
2023/05/28 17:33:57;;;;;;;2.63;2.42;;;;;;;;;;10352960;28;20713;-77
2023/05/28 17:39:02;;;;;;;2.78;2.47;;;;;;;;;;10345021;28;20219;-81
2023/05/28 17:44:03;;;;;;;0.90;0.90;;;;;;;;;;10362856;28;20251;-78
2023/05/28 17:49:04;;;;;;;1.45;1.40;;;;;;;;;;10366885;28;20211;-77
2023/05/28 17:54:05;;;;;;;1.83;1.65;;;;;;;;;;10323661;28;20266;-78
2023/05/28 17:59:07;;;;;;;1.65;1.55;;;;;;;;;;10365128;28;21029;-79
2023/05/28 18:04:10;;;;;;;3.13;1.40;;;;;;;;;;10359996;28;20254;-78
2023/05/28 18:09:11;;;;;;;6.88;1.38;;;;;;;;;;10373065;28;20219;-79
2023/05/28 18:14:12;;;;;;;1.60;1.60;;;;;;;;;;10357778;28;20222;-79
2023/05/28 18:19:13;;;;;;;3.58;2.83;;;;;;;;;;10365179;28;20223;-78
2023/05/28 18:24:14;;;;;;;2.47;1.50;;;;;;;;;;10359458;28;20305;-77
2023/05/28 18:29:15;;;;;;;1.20;1.20;;;;;;;;;;10347009;28;20238;-77
2023/05/28 18:34:16;;;;;;;1.75;1.10;;;;;;;;;;10354355;28;20241;-78
2023/05/28 18:39:17;;;;;;;2.95;0.90;;;;;;;;;;10344179;28;20231;-78
2023/05/28 18:44:18;;;;;;;0.98;0.98;;;;;;;;;;10356896;28;20757;-78
2023/05/28 18:49:19;;;;;;;3.10;1.40;;;;;;;;;;10318820;28;20215;-78
2023/05/28 18:54:20;;;;;;;1.63;1.52;;;;;;;;;;10340288;28;20822;-78
2023/05/28 18:59:21;;;;;;;1.52;1.45;;;;;;;;;;10355540;28;20224;-78
2023/05/28 19:04:22;;;;;;;2.05;2.03;;;;;;;;;;10359168;28;20235;-78
2023/05/28 19:09:23;;;;;;;2.22;2.13;;;;;;;;;;10343573;28;20327;-78
2023/05/28 19:14:24;;;;;;;3.05;2.17;;;;;;;;;;10359217;28;20734;-78
2023/05/28 19:19:25;;;;;;;1.17;1.17;;;;;;;;;;10333785;28;20211;-77
2023/05/28 19:24:26;;;;;;;1.85;1.30;;;;;;;;;;10359119;28;20219;-79
2023/05/28 19:29:27;;;;;;;2.42;1.58;;;;;;;;;;10336382;28;20741;-73
2023/05/28 19:34:31;;;;;;;1.58;1.48;;;;;;;;;;10360154;28;20223;-75
2023/05/28 19:39:32;;;;;;;1.60;1.50;;;;;;;;;;10343612;28;20273;-77
2023/05/28 19:44:33;;;;;;;1.83;1.73;;;;;;;;;;10357218;28;21460;-74
2023/05/28 19:49:35;;;;;;;3.15;2.60;;;;;;;;;;10356866;28;20238;-77
2023/05/28 19:54:36;;;;;;;4.15;3.80;;;;;;;;;;10358618;28;20243;-78
2023/05/28 19:59:38;;;;;;;2.28;2.10;;;;;;;;;;10362330;28;20958;-77
2023/05/28 20:04:41;;;;;;;2.20;2.10;;;;;;;;;;10351100;28;20909;-74
2023/05/28 20:09:42;;;;;;;1.80;1.70;;;;;;;;;;10347631;28;20270;-75
2023/05/28 20:14:43;;;;;;;1.73;1.65;;;;;;;;;;10359843;28;20293;-76
2023/05/28 20:19:45;;;;;;;2.33;2.20;;;;;;;;;;10349898;28;20223;-76
2023/05/28 20:24:48;;;;;;;2.40;1.58;;;;;;;;;;10339510;28;20215;-76
2023/05/28 20:29:49;;;;;;;6.13;1.23;;;;;;;;;;10315924;28;20774;-78
2023/05/28 20:34:50;;;;;;;2.13;1.50;;;;;;;;;;10355794;28;20223;-77
2023/05/28 20:39:53;;;;;;;2.47;1.55;;;;;;;;;;10356988;28;20211;-75
2023/05/28 20:44:54;;;;;;;1.38;1.35;;;;;;;;;;10368893;28;20224;-75
2023/05/28 20:49:55;;;;;;;1.75;1.65;;;;;;;;;;10367732;28;20361;-73
2023/05/28 20:54:56;;;;;;;3.42;1.48;;;;;;;;;;10331642;28;20779;-76
2023/05/28 20:59:57;;;;;;;2.67;1.13;;;;;;;;;;10360750;28;20229;-76
2023/05/28 21:04:58;;;;;;;2.95;1.30;;;;;;;;;;10370229;28;20871;-76
2023/05/28 21:09:59;;;;;;;4.32;1.40;;;;;;;;;;10349370;28;20889;-75
2023/05/28 21:15:00;;;;;;;1.95;1.52;;;;;;;;;;10350593;28;20224;-75
2023/05/28 21:20:05;;;;;;;4.03;1.63;;;;;;;;;;10378076;28;20227;-74
2023/05/28 21:25:06;;;;;;;2.45;1.63;;;;;;;;;;10372306;28;20216;-75
2023/05/28 21:30:07;;;;;;;1.75;1.63;;;;;;;;;;10372772;28;20227;-77
2023/05/28 21:35:08;;;;;;;4.35;1.35;;;;;;;;;;10351633;28;21023;-75
2023/05/28 21:40:09;;;;;;;1.23;1.23;;;;;;;;;;10359840;28;20754;-76
2023/05/28 21:45:11;;;;;;;1.95;1.50;;;;;;;;;;10340600;28;20326;-77
2023/05/28 21:50:12;;;;;;;6.15;1.52;;;;;;;;;;10358799;28;20199;-76
2023/05/28 21:55:13;;;;;;;8.32;1.75;;;;;;;;;;10367841;28;20223;-76
2023/05/28 22:00:15;;;;;;;2.42;1.30;;;;;;;;;;10373901;28;20708;-76
2023/05/28 22:05:16;;;;;;;1.80;1.52;;;;;;;;;;10347956;28;20231;-77
2023/05/28 22:10:18;;;;;;;1.98;1.40;;;;;;;;;;10353121;28;20707;-77
2023/05/28 22:15:19;;;;;;;1.25;1.25;;;;;;;;;;10357617;28;20215;-74
2023/05/28 22:20:20;;;;;;;3.05;1.85;;;;;;;;;;10363633;28;20211;-78
2023/05/28 22:25:21;;;;;;;1.92;1.83;;;;;;;;;;10343481;28;20750;-73
2023/05/28 22:30:22;;;;;;;3.17;1.80;;;;;;;;;;10365495;28;20205;-76
2023/05/28 22:35:24;;;;;;;4.20;1.77;;;;;;;;;;10372092;28;21382;-74
2023/05/28 22:40:27;;;;;;;4.10;1.80;;;;;;;;;;10339812;28;20290;-76
2023/05/28 22:45:28;;;;;;;2.70;1.77;;;;;;;;;;10347820;28;21151;-77
2023/05/28 22:50:29;;;;;;;1.65;1.60;;;;;;;;;;10361339;28;20247;-78
2023/05/28 22:55:30;;;;;;;5.97;1.80;;;;;;;;;;10347521;28;20294;-78
2023/05/28 23:00:32;;;;;;;1.77;1.58;;;;;;;;;;10366369;28;20356;-76
2023/05/28 23:05:33;;;;;;;1.70;1.60;;;;;;;;;;10355978;28;20479;-77
2023/05/28 23:10:34;;;;;;;2.47;1.60;;;;;;;;;;10338022;28;20229;-74
2023/05/28 23:15:35;;;;;;;1.70;1.60;;;;;;;;;;10368833;28;20411;-77
2023/05/28 23:20:36;;;;;;;3.05;1.60;;;;;;;;;;10363719;28;20274;-77
2023/05/28 23:25:37;;;;;;;5.45;1.60;;;;;;;;;;10357762;28;20250;-77
2023/05/28 23:30:38;;;;;;;2.78;1.52;;;;;;;;;;10339338;28;20628;-76
2023/05/28 23:35:40;;;;;;;4.38;1.55;;;;;;;;;;10347284;28;20310;-74
2023/05/28 23:40:41;;;;;;;2.45;1.48;;;;;;;;;;10355880;28;20695;-74
2023/05/28 23:45:44;;;;;;;1.70;1.50;;;;;;;;;;10366467;28;21270;-76
2023/05/28 23:50:45;;;;;;;2.70;1.75;;;;;;;;;;10362564;28;20250;-74
2023/05/28 23:55:46;;;;;;;1.67;1.58;;;;;;;;;;10364916;28;20321;-75
